Goodrich, Wisconsin
Current Conditions -  °F | °C
As of 12:35 PM on Monday 20 Oct 2014 (Local Time) from KMDZ Reporting Station
Overcast Overcast  
Wind Chill: 45°   Ceiling: 2400
Heat Index: 49°   Visibility: 10mi
Dew Point: 41°   Wind: 10mph
Humidity: 73%   Direction: 340°NNW
Pressure: 29.93"   Gusts: 16mph
Location:  45.2044°N, 90.4212°W
Report Text: KMDZ 201735Z AUTO 34009G14KT 10SM BKN024 OVC031 10/05 A2993 RMK AO2 T00960050
Loading
Personal Weather Stations






























Interactive Weather Map
Tropical Storm Tracking
New forecast layout! Learn more

10-Day Weather Forecast

Advertisements
Track Severe Weather on mobile